Saturday, November 17, 2018, 6:42 AM GMT
Back to Local

CZBF, Bathurst Airport Aviation Weather Reporting Station

Location: , , Canada Lat: 47.633
Local Time: 6:42 AM GMT ( 6:42 GMT) Lon: -65.75
Time Zone: GMT Elev: 193 ft

Show me the last for .
Show Decoded

2018-11-17 06:00 METAR CZBF 170600Z AUTO 34006KT 300V010 1SM -SN VV012 M03/M04 A2953 RMK SLP005 =
2018-11-17 05:37 METAR CZBF 170537Z AUTO 35007G16KT 320V020 1 1/2SM -SN OVC021 M03/M04 A2952 RMK
                 SLP001 =
2018-11-17 05:34 METAR CZBF 170534Z AUTO 35007G16KT 310V020 1 3/4SM -SN SCT018 OVC025 M03/M04
                 A2952 RMK SLP001 =
2018-11-17 05:32 METAR CZBF 170532Z AUTO 35008G16KT 310V020 2 1/4SM -SN SCT018 OVC025 M03/M04
                 A2951 RMK SLP000 =
2018-11-17 05:18 METAR CZBF 170518Z AUTO 34006G16KT 300V010 3SM -SN SCT018 OVC025 M03/M04 A2951
                 RMK SLP000 =
2018-11-17 05:15 METAR CZBF 170515Z AUTO 34009G16KT 300V010 3SM -SN SCT018 OVC023 M03/M04 A2951
                 RMK SLP000 =
2018-11-17 05:12 METAR CZBF 170512Z AUTO 34006KT 310V010 2SM -SN OVC018 M03/M04 A2951 RMK SLP999
                 =
2018-11-17 05:00 METAR CZBF 170500Z AUTO 35007G15KT 310V020 1 1/2SM -SN OVC016 M03/M04 A2951 RMK
                 VIS VRB 1-2 1/2 SLP998 =
2018-11-17 04:32 METAR CZBF 170432Z AUTO 33006KT 300V010 1SM -SN VV011 M03/M04 A2951 RMK SLP998 =
2018-11-17 04:22 METAR CZBF 170422Z AUTO 36005KT 290V040 3/4SM -SN VV010 M03/M04 A2951 RMK SLP998
                 =
2018-11-17 04:12 METAR CZBF 170412Z AUTO 35005KT 310V030 1SM -SN VV011 M03/M04 A2951 RMK SLP997 =
2018-11-17 04:07 METAR CZBF 170407Z AUTO 34006KT 310V020 3/4SM -SN VV010 M03/M04 A2951 RMK SLP997
                 =
2018-11-17 04:00 METAR CZBF 170400Z AUTO 35006KT 310V010 3/4SM -SN VV009 M03/M04 A2951 RMK SLP998
                 =
2018-11-17 03:26 METAR CZBF 170326Z AUTO 35005KT 3/4SM -SN VV008 M03/M03 A2950 RMK SLP996 =
2018-11-17 03:00 METAR CZBF 170300Z AUTO 01007KT 1/2SM -SN BKN006 OVC011 M02/M03 A2951 RMK SLP998
                 =
2018-11-17 02:58 METAR CZBF 170258Z AUTO 01007KT 5/8SM -SN BKN006 OVC011 M02/M03 A2951 RMK SLP998
                 =
2018-11-17 02:54 METAR CZBF 170254Z AUTO 01005KT 340V040 3/4SM -SN OVC008 M02/M03 A2951 RMK
                 SLP998 =
2018-11-17 02:40 METAR CZBF 170240Z AUTO 02006G15KT 340V060 1SM -SN BKN008 OVC012 M02/M03 A2951
                 RMK SLP998 =
2018-11-17 02:20 METAR CZBF 170220Z AUTO 02008G18KT 350V050 1SM -SN SCT006 OVC010 M02/M03 A2951
                 RMK SLP999 =
2018-11-17 02:19 METAR CZBF 170219Z AUTO 02008G18KT 350V050 1SM -SN VV009 M02/M03 A2951 RMK
                 SLP000 =
2018-11-17 02:14 METAR CZBF 170214Z AUTO 03009G18KT 350V050 1SM -SN SCT006 OVC010 M02/M03 A2951
                 RMK SLP000 =
2018-11-17 02:08 METAR CZBF 170208Z AUTO 02010G17KT 340V050 1SM -SN SCT005 OVC009 M02/M03 A2952
                 RMK SLP001 =
2018-11-17 02:00 METAR CZBF 170200Z AUTO 02009G19KT 350V050 3/4SM -SN SCT005 OVC009 M02/M03 A2952
                 RMK SLP002 =
2018-11-17 01:50 METAR CZBF 170150Z AUTO 03009G19KT 360V070 3/4SM -SN SCT005 OVC009 M02/M03 A2952
                 RMK SLP003 =
2018-11-17 01:49 METAR CZBF 170149Z AUTO 03010G19KT 360V070 3/4SM -SN BKN005 OVC009 M02/M03 A2952
                 RMK SLP003 =
2018-11-17 01:42 METAR CZBF 170142Z AUTO 05009G21KT 1SM -SN BKN005 OVC009 M02/M03 A2952 RMK
                 SLP002 =
2018-11-17 01:32 METAR CZBF 170132Z AUTO 04014G23KT 1SM -SN SCT005 OVC009 M02/M03 A2952 RMK
                 SLP001 =
2018-11-17 01:26 METAR CZBF 170126Z AUTO 04011G23KT 010V080 3/4SM -SN SCT005 OVC009 M02/M02 A2952
                 RMK SLP001 =
2018-11-17 01:23 METAR CZBF 170123Z AUTO 04008G17KT 010V080 3/4SM -SN BKN005 OVC009 M02/M02 A2952
                 RMK SLP002 =
2018-11-17 01:16 METAR CZBF 170116Z AUTO 05008G16KT 3/4SM -SN VV008 M02/M02 A2952 RMK SLP003 =
2018-11-17 01:01 METAR CZBF 170101Z AUTO 05011G18KT 1SM -SN SCT006 OVC010 M02/M03 A2953 RMK
                 SLP004 =
2018-11-17 01:00 METAR CZBF 170100Z AUTO 05011G18KT 1SM -SN VV009 M02/M03 A2953 RMK SLP004 =
2018-11-17 00:58 METAR CZBF 170058Z AUTO 05006KT 1SM -SN VV009 M02/M03 A2953 RMK SLP004 =
2018-11-17 00:56 METAR CZBF 170056Z AUTO 05009KT 1SM -SN SCT006 OVC010 M02/M03 A2953 RMK SLP005 =
2018-11-17 00:34 METAR CZBF 170034Z AUTO 06010G25KT 1SM -SN VV008 M02/M03 A2954 RMK SLP009 =
2018-11-17 00:27 METAR CZBF 170027Z AUTO 06013G25KT 020V090 3/4SM -SN VV008 M02/M03 A2954 RMK
                 SLP008 =
2018-11-17 00:23 METAR CZBF 170023Z AUTO 06010G18KT 3/4SM -SN VV007 M02/M02 A2954 RMK SLP008 =
2018-11-17 00:22 METAR CZBF 170022Z AUTO 07012G21KT 3/4SM -SN VV008 M02/M02 A2954 RMK SLP008 =
2018-11-17 00:20 METAR CZBF 170020Z AUTO 05011G22KT 1SM -SN VV008 M02/M02 A2954 RMK SLP007 =
2018-11-17 00:16 METAR CZBF 170016Z AUTO 06010G22KT 1SM -SN SCT006 OVC010 M02/M02 A2954 RMK
                 SLP007 =
2018-11-17 00:15 METAR CZBF 170015Z AUTO 06012G22KT 1SM -SN VV009 M02/M03 A2954 RMK SLP007 =
2018-11-17 00:00 METAR CZBF 170000Z AUTO 06010G23KT 1 1/4SM -SN SCT007 OVC014 M02/M03 A2954 RMK
                 SLP010 =
2018-11-16 23:47 METAR CZBF 162347Z AUTO 06015G25KT 1 3/4SM -SN SCT007 BKN010 OVC020 M02/M03
                 A2955 RMK SLP013 =
2018-11-16 23:46 METAR CZBF 162346Z AUTO 06015G25KT 1 3/4SM -SN BKN007 OVC020 M02/M03 A2955 RMK
                 PRESFR SLP013 =
2018-11-16 23:41 METAR CZBF 162341Z AUTO 06015G25KT 010V080 1 1/2SM -SN SCT005 BKN011 OVC018
                 M02/M03 A2956 RMK SLP015 =
2018-11-16 23:36 METAR CZBF 162336Z AUTO 06011G25KT 010V080 1 1/4SM -SN SCT005 BKN009 OVC016
                 M02/M03 A2957 RMK SLP017 =
2018-11-16 23:27 METAR CZBF 162327Z AUTO 06011G21KT 1SM -SN BKN005 OVC012 M02/M03 A2957 RMK
                 SLP019 =
2018-11-16 23:26 METAR CZBF 162326Z AUTO 06010G20KT 1SM -SN SCT005 SCT009 OVC012 M02/M03 A2957
                 RMK SLP019 =
2018-11-16 23:23 METAR CZBF 162323Z AUTO 06008G20KT 1SM -SN BKN005 OVC010 M02/M02 A2957 RMK
                 SLP020 =
2018-11-16 23:21 METAR CZBF 162321Z AUTO 07011G20KT 1SM -SN OVC008 M02/M03 A2958 RMK SLP021 =
2018-11-16 23:20 METAR CZBF 162320Z AUTO 07010G20KT 1SM -SN VV007 M02/M03 A2957 RMK SLP020 =
2018-11-16 23:19 METAR CZBF 162319Z AUTO 07008G16KT 3/4SM -SN VV008 M02/M03 A2958 RMK SLP021 =
2018-11-16 23:11 METAR CZBF 162311Z AUTO 06009G17KT 3/4SM -SN VV007 M02/M03 A2958 RMK PRESFR
                 SLP022 =
2018-11-16 23:03 METAR CZBF 162303Z AUTO 06009G18KT 3/4SM -SN VV008 M02/M03 A2959 RMK PRESFR
                 SLP024 =
2018-11-16 23:00 METAR CZBF 162300Z AUTO 06009G19KT 3/4SM -SN VV007 M02/M03 A2959 RMK PRESFR
                 SLP025 =
2018-11-16 22:49 METAR CZBF 162249Z AUTO 06012G17KT 020V090 3/4SM -SN VV007 M02/M03 A2960 RMK
                 SLP028 =
2018-11-16 22:41 METAR CZBF 162241Z AUTO 06008G16KT 3/4SM -SN VV008 M02/M03 A2961 RMK SLP032 =
2018-11-16 22:40 METAR CZBF 162240Z AUTO 06009G16KT 3/4SM -SN VV007 M02/M03 A2961 RMK SLP033 =
2018-11-16 22:36 METAR CZBF 162236Z AUTO 06009G19KT 3/4SM -SN VV008 M02/M03 A2961 RMK SLP033 =
2018-11-16 22:30 METAR CZBF 162230Z AUTO 06012G19KT 1SM -SN VV008 M02/M03 A2961 RMK SLP033 =
2018-11-16 22:27 METAR CZBF 162227Z AUTO 06012G19KT 1SM -SN VV007 M02/M03 A2962 RMK SLP035 =
2018-11-16 22:25 METAR CZBF 162225Z AUTO 06010G19KT 1SM -SN VV008 M02/M03 A2962 RMK SLP036
2018-11-16 22:19 METAR CZBF 162219Z AUTO 06010G19KT 1SM -SN VV007 M02/M03 A2962 RMK PRESFR SLP037
                 =
2018-11-16 22:15 METAR CZBF 162215Z AUTO 05009G20KT 1SM -SN VV008 M02/M03 A2962 RMK PRESFR SLP038
                 =
2018-11-16 22:10 METAR CZBF 162210Z AUTO 06013G21KT 1SM -SN VV007 M02/M03 A2963 RMK PRESFR SLP038
                 =
2018-11-16 22:08 METAR CZBF 162208Z AUTO 06011G21KT 1SM -SN VV008 M02/M03 A2963 RMK PRESFR SLP040
                 =
2018-11-16 22:00 METAR CZBF 162200Z AUTO 06008G17KT 1SM -SN VV007 M02/M03 A2964 RMK PRESFR SLP043
                 =
2018-11-16 21:56 METAR CZBF 162156Z AUTO 06010G17KT 1SM -SN VV006 M02/M03 A2965 RMK PRESFR SLP045
                 =
2018-11-16 21:23 METAR CZBF 162123Z AUTO 06010G17KT 3/4SM -SN VV007 M02/M03 A2968 RMK SLP056 =
2018-11-16 21:04 METAR CZBF 162104Z AUTO 06009G18KT 1SM -SN VV007 M02/M03 A2969 RMK SLP061 =
2018-11-16 21:03 METAR CZBF 162103Z AUTO 06008G18KT 1SM -SN VV008 M02/M03 A2969 RMK SLP061 =
2018-11-16 21:00 METAR CZBF 162100Z AUTO 06010G18KT 1SM -SN VV007 M02/M03 A2970 RMK SLP062 =
2018-11-16 20:57 METAR CZBF 162057Z AUTO 05008G16KT 020V080 5/8SM SN VV008 M02/M03 A2970 RMK
                 SLP062 =
2018-11-16 20:35 METAR CZBF 162035Z AUTO 06007KT 020V080 3/8SM SN VV007 M03/M03 A2971 RMK SLP067
                 =
2018-11-16 20:22 METAR CZBF 162022Z AUTO 05004KT 1/4SM +SN VV007 M03/M04 A2972 RMK PRESFR SLP071
                 =
2018-11-16 20:08 METAR CZBF 162008Z AUTO 03004KT 1/4SM +SN VV008 M04/M04 A2973 RMK PRESFR SLP075
                 =
2018-11-16 20:00 METAR CZBF 162000Z AUTO 01003KT 3/8SM SN VV009 M04/M04 A2974 RMK SLP078 =
2018-11-16 19:52 METAR CZBF 161952Z AUTO 01004KT 1/4SM +SN VV008 M04/M05 A2975 RMK SLP080 =
2018-11-16 19:50 METAR CZBF 161950Z AUTO 36003KT 1/4SM +SN VV007 M04/M05 A2975 RMK SLP081 =
2018-11-16 19:36 METAR CZBF 161936Z AUTO 01003KT 1/4SM +SN VV008 M04/M05 A2976 RMK SLP084 =
2018-11-16 19:00 METAR CZBF 161900Z AUTO 01003KT 3/8SM SN VV011 M04/M05 A2979 RMK SLP093 =
2018-11-16 18:28 METAR CZBF 161828Z AUTO 01003KT 1/2SM SN VV010 M05/M06 A2982 RMK PRESFR SLP105 =
2018-11-16 18:24 METAR CZBF 161824Z AUTO 01003KT 3/8SM SN VV009 M05/M06 A2983 RMK PRESFR SLP106 =
2018-11-16 18:20 METAR CZBF 161820Z AUTO 01003KT 1/4SM +SN VV008 M05/M06 A2983 RMK PRESFR SLP107
                 =
2018-11-16 18:13 METAR CZBF 161813Z AUTO 02003KT 1/4SM +SN VV007 M05/M06 A2984 RMK SLP110 =
2018-11-16 18:00 METAR CZBF 161800Z AUTO 01002KT 1/4SM +SN VV008 M05/M06 A2985 RMK PRESFR PCPN
                 1.0MM PAST HR SLP113 =
2018-11-16 17:37 METAR CZBF 161737Z AUTO VRB02KT 1/4SM +SN VV011 M05/M06 A2987 RMK SLP121 =
2018-11-16 17:00 METAR CZBF 161700Z AUTO 01002KT 5/8SM -SN VV014 M06/M07 A2990 RMK PRESFR SLP131
                 =
2018-11-16 16:41 METAR CZBF 161641Z AUTO 03003KT 3/4SM -SN BKN017 OVC027 M06/M08 A2992 RMK PRESFR
                 SLP140 =
2018-11-16 16:37 METAR CZBF 161637Z AUTO 04002KT 1 1/4SM -SN BKN019 OVC027 M06/M08 A2993 RMK VIS
                 VRB 5/8-3 PRESFR SLP142 =
2018-11-16 16:36 METAR CZBF 161636Z AUTO 04003KT 1 1/2SM -SN SCT021 OVC027 M06/M09 A2993 RMK VIS
                 VRB 5/8-3 PRESFR SLP143 =
2018-11-16 16:35 METAR CZBF 161635Z AUTO 04003KT 2SM -SN SCT021 OVC027 M06/M09 A2993 RMK VIS VRB
                 3/4-3 PRESFR SLP143 =
2018-11-16 16:34 METAR CZBF 161634Z AUTO 04003KT 360V090 3SM -SN OVC024 M06/M09 A2994 RMK PRESFR
                 SLP144 =
2018-11-16 16:31 METAR CZBF 161631Z AUTO 04004KT 360V090 4SM -SN OVC027 M06/M09 A2994 RMK PRESFR
                 SLP146 =
2018-11-16 16:16 METAR CZBF 161616Z AUTO 03004KT 9SM -SN BKN027 OVC065 M06/M09 A2996 RMK PRESFR
                 SLP151 =
2018-11-16 16:00 METAR CZBF 161600Z AUTO 03004KT 9SM BKN027 OVC065 M06/M10 A2998 RMK SLP160 =
2018-11-16 15:00 METAR CZBF 161500Z AUTO 06003KT 9SM BKN025 OVC065 M06/M10 A3004 RMK PRESFR
                 SLP179 =
2018-11-16 14:37 METAR CZBF 161437Z AUTO 00000KT 9SM SCT019 OVC025 M06/M10 A3006 RMK SLP187 =
2018-11-16 14:00 METAR CZBF 161400Z AUTO 00000KT 9SM BKN024 BKN050 OVC075 M08/M11 A3010 RMK
                 PRESFR SLP198 =
2018-11-16 13:46 METAR CZBF 161346Z AUTO 00000KT 9SM BKN024 OVC080 M09/M12 A3011 RMK PRESFR
                 SLP202 =
2018-11-16 13:00 METAR CZBF 161300Z AUTO 21002KT 9SM BKN095 M10/M13 A3014 RMK SLP215 =
2018-11-16 12:00 METAR CZBF 161200Z AUTO 00000KT 9SM SCT130 SCT150 BKN170 M11/M14 A3016 RMK
                 SLP221 =
2018-11-16 11:03 METAR CZBF 161103Z AUTO 00000KT 6SM BR OVC130 M12/M14 A3020 RMK SLP235 =
2018-11-16 11:00 METAR CZBF 161100Z AUTO 19002KT 5SM BR OVC130 M12/M15 A3020 RMK SLP235 =
2018-11-16 10:54 METAR CZBF 161054Z AUTO VRB02KT 5SM BR OVC140 M12/M14 A3021 RMK SLP236 =
2018-11-16 10:00 METAR CZBF 161000Z AUTO 00000KT 9SM BKN140 BKN160 M13/M15 A3023 RMK SLP244 =
2018-11-16 09:00 METAR CZBF 160900Z AUTO 22003KT 9SM CLR M14/M16 A3028 RMK SLP260 =
2018-11-16 08:00 METAR CZBF 160800Z AUTO 26005KT 9SM CLR M13/M16 A3028 RMK SLP262 =
2018-11-16 07:00 METAR CZBF 160700Z AUTO 24004KT 9SM CLR M14/M16 A3032 RMK SLP274 =

Support USWX by starting your Amazon purchase here.